Home > Products > Valid Products > MTR

000
SAUS41 KPHI 291855
MTRACY
METAR KACY 291854Z 18008KT 10SM BKN046 BKN060 28/17 A3015 RMK AO2
SLP209 T02780172





000
SAUS41 KPHI 291855
MTR12N
METAR K12N 291854Z AUTO 21003KT 26/16 A3015 RMK AO1 SLP206 T02610161





000
SAUS41 KPHI 291755
MTR12N
METAR K12N 291754Z AUTO VRB04KT 26/16 A3018 RMK AO1 SLP215 T02610156
10267 20133 58017





000
SAUS41 KPHI 291755
MTRACY
METAR KACY 291754Z VRB05KT 10SM SCT060 29/14 A3018 RMK AO2 SLP218
T02890144 10300 20178 58020





000
SAUS41 KPHI 291755
MTRACY
METAR KACY 291754Z VRB05KT 10SM SCT060 29/14 A3018 RMK AO2 SLP218
T02890144 10300 20178 58020





000
SAUS41 KPHI 291755
MTR12N
METAR K12N 291754Z AUTO VRB04KT 26/16 A3018 RMK AO1 SLP215 T02610156
10267 20133 58017





000
SAUS41 KPHI 291655
MTR12N
METAR K12N 291654Z AUTO VRB06KT 26/16 A3020 RMK AO1 SLP221 T02560161





000
SAUS41 KPHI 291655
MTRACY
METAR KACY 291654Z 26006KT 10SM FEW055 30/14 A3020 RMK AO2 SLP226
T03000139





000
SAUS41 KPHI 291655
MTRACY
METAR KACY 291654Z 26006KT 10SM FEW055 30/14 A3020 RMK AO2 SLP226
T03000139





000
SAUS41 KPHI 291655
MTR12N
METAR K12N 291654Z AUTO VRB06KT 26/16 A3020 RMK AO1 SLP221 T02560161





000
SAUS41 KPHI 291555
MTRACY
METAR KACY 291554Z 24008KT 10SM FEW047 28/13 A3022 RMK AO2 SLP233
T02830133





000
SAUS41 KPHI 291555
MTR12N
METAR K12N 291554Z AUTO 29008KT 260V340 25/16 A3022 RMK AO1 SLP229
T02500161





000
SAUS41 KPHI 291455
MTR12N
METAR K12N 291454Z AUTO 00000KT 24/16 A3023 RMK AO1 SLP232 T02390156
56003





000
SAUS41 KPHI 291455
MTRACY
METAR KACY 291454Z VRB04KT 10SM CLR 27/14 A3023 RMK AO2 SLP237
T02720144 50002





000
SAUS41 KPHI 291355
MTRACY
METAR KACY 291354Z 24005KT 10SM CLR 25/16 A3024 RMK AO2 SLP238
T02500161





000
SAUS41 KPHI 291355
MTR12N
METAR K12N 291354Z AUTO 00000KT 21/16 A3023 RMK AO1 SLP234 T02110161





000
SAUS41 KPHI 291355
MTRACY
METAR KACY 291354Z 24005KT 10SM CLR 25/16 A3024 RMK AO2 SLP238
T02500161





000
SAUS41 KPHI 291355
MTR12N
METAR K12N 291354Z AUTO 00000KT 21/16 A3023 RMK AO1 SLP234 T02110161





000
SAUS41 KPHI 291255
MTRACY
METAR KACY 291254Z 25004KT 10SM CLR 23/16 A3023 RMK AO2 SLP237
T02280161





000
SAUS41 KPHI 291255
MTR12N
METAR K12N 291254Z AUTO 00000KT 17/14 A3023 RMK AO1 SLP235 T01720144





000
SAUS41 KPHI 291255
MTRACY
METAR KACY 291254Z 25004KT 10SM CLR 23/16 A3023 RMK AO2 SLP237
T02280161





000
SAUS41 KPHI 291255
MTR12N
METAR K12N 291254Z AUTO 00000KT 17/14 A3023 RMK AO1 SLP235 T01720144





000
SAUS41 KPHI 291155
MTR12N
METAR K12N 291154Z AUTO 00000KT 13/13 A3024 RMK AO1 SLP238 T01330128
10133 20100 51008





000
SAUS41 KPHI 291155
MTRACY
METAR KACY 291154Z 00000KT 10SM CLR 18/15 A3023 RMK AO2 SLP235
T01780150 10178 20128 53013





000
SAUS41 KPHI 291155
MTR12N
METAR K12N 291154Z AUTO 00000KT 13/13 A3024 RMK AO1 SLP238 T01330128
10133 20100 51008





000
SAUS41 KPHI 291155
MTRACY
METAR KACY 291154Z 00000KT 10SM CLR 18/15 A3023 RMK AO2 SLP235
T01780150 10178 20128 53013





000
SAUS41 KPHI 291055
MTRACY
METAR KACY 291054Z AUTO 00000KT 10SM CLR 14/12 A3022 RMK AO2 SLP231
T01390122 TSNO





000
SAUS41 KPHI 291055
MTR12N
METAR K12N 291054Z AUTO 00000KT 11/10 A3023 RMK AO1 SLP236 T01060100





000
SAUS41 KPHI 290955
MTRACY
METAR KACY 290954Z 00000KT 10SM CLR 14/12 A3020 RMK AO2 SLP225
T01390122





000
SAUS41 KPHI 290955
MTR12N
METAR K12N 290954Z AUTO 00000KT 11/10 A3022 RMK AO1 SLP230 T01060100





000
SAUS41 KPHI 290755
MTRACY
METAR KACY 290754Z 00000KT 10SM CLR 15/13 A3020 RMK AO2 SLP224
T01500133





000
SAUS41 KPHI 290755
MTR12N
METAR K12N 290754Z AUTO 00000KT 11/11 A3021 RMK AO1 SLP227 T01110111





000
SAUS41 KPHI 290755
MTR12N
METAR K12N 290754Z AUTO 00000KT 11/11 A3021 RMK AO1 SLP227 T01110111





000
SAUS41 KPHI 290755
MTRACY
METAR KACY 290754Z 00000KT 10SM CLR 15/13 A3020 RMK AO2 SLP224
T01500133





000
SAUS41 KPHI 290655
MTRACY
METAR KACY 290654Z 00000KT 10SM CLR 15/13 A3020 RMK AO2 SLP225
T01500133





000
SAUS41 KPHI 290655
MTR12N
METAR K12N 290654Z AUTO 00000KT 12/11 A3022 RMK AO1 SLP229 T01170111





000
SAUS41 KPHI 290655
MTRACY
METAR KACY 290654Z 00000KT 10SM CLR 15/13 A3020 RMK AO2 SLP225
T01500133





000
SAUS41 KPHI 290655
MTR12N
METAR K12N 290654Z AUTO 00000KT 12/11 A3022 RMK AO1 SLP229 T01170111





000
SAUS41 KPHI 290555
MTR12N
METAR K12N 290554Z AUTO 00000KT 12/12 A3022 RMK AO1 SLP229 T01220117
10178 20122 58002





000
SAUS41 KPHI 290555
MTRACY
METAR KACY 290554Z 00000KT 10SM CLR 17/14 A3020 RMK AO2 SLP227
T01670139 10228 20161 50002





000
SAUS41 KPHI 290456
MTRACY
METAR KACY 290454Z 19003KT 10SM CLR 18/15 A3020 RMK AO2 SLP227
T01830150 402940128





000
SAUS41 KPHI 290456
MTR12N
METAR K12N 290454Z AUTO 00000KT 13/12 A3022 RMK AO1 SLP231 T01280122
402560100





000
SAUS41 KPHI 290355
MTR12N
METAR K12N 290354Z AUTO 00000KT 13/13 A3022 RMK AO1 SLP231 T01330128





000
SAUS41 KPHI 290355
MTRACY
METAR KACY 290354Z VRB03KT 10SM CLR 19/15 A3020 RMK AO2 SLP227
T01940150





000
SAUS41 KPHI 290255
MTR12N
METAR K12N 290254Z AUTO 00000KT 14/13 A3022 RMK AO1 SLP231 T01390133
51016





000
SAUS41 KPHI 290255
MTRACY
METAR KACY 290254Z 20004KT 10SM CLR 21/15 A3020 RMK AO2 SLP225
T02060150 51017





000
SAUS41 KPHI 290255
MTRACY
METAR KACY 290254Z 20004KT 10SM CLR 21/15 A3020 RMK AO2 SLP225
T02060150 51017





000
SAUS41 KPHI 290255
MTR12N
METAR K12N 290254Z AUTO 00000KT 14/13 A3022 RMK AO1 SLP231 T01390133
51016





000
SAUS41 KPHI 290155
MTRACY
METAR KACY 290154Z 19003KT 10SM SCT060 21/16 A3020 RMK AO2 SLP224
T02110161





000
SAUS41 KPHI 290155
MTRACY
METAR KACY 290154Z 19003KT 10SM SCT060 21/16 A3020 RMK AO2 SLP224
T02110161





000
SAUS41 KPHI 290155
MTR12N
METAR K12N 290154Z AUTO 00000KT 14/13 A3022 RMK AO1 SLP229 T01440133





000
SAUS41 KPHI 290055
MTR12N
METAR K12N 290054Z AUTO 00000KT 16/14 A3020 RMK AO1 SLP224 T01560139





000
SAUS41 KPHI 290055
MTRACY
METAR KACY 290054Z 16005KT 10SM CLR 22/16 A3017 RMK AO2 SLP217
T02220161





000
SAUS41 KPHI 290055
MTRACY
METAR KACY 290054Z 16005KT 10SM CLR 22/16 A3017 RMK AO2 SLP217
T02220161





000
SAUS41 KPHI 290055
MTR12N
METAR K12N 290054Z AUTO 00000KT 16/14 A3020 RMK AO1 SLP224 T01560139





000
SAUS41 KPHI 282355
MTRACY
METAR KACY 282354Z 15005KT 10SM CLR 23/15 A3015 RMK AO2 SLP209
T02280150 10294 20228 53002





000
SAUS41 KPHI 282355
MTR12N
METAR K12N 282354Z AUTO 00000KT 18/14 A3018 RMK AO1 SLP217 T01780139
10256 20178 53005





000
SAUS41 KPHI 282355
MTR12N
METAR K12N 282354Z AUTO 00000KT 18/14 A3018 RMK AO1 SLP217 T01780139
10256 20178 53005





000
SAUS41 KPHI 282355
MTRACY
METAR KACY 282354Z 15005KT 10SM CLR 23/15 A3015 RMK AO2 SLP209
T02280150 10294 20228 53002





000
SAUS41 KPHI 282255
MTR12N
METAR K12N 282254Z AUTO 00000KT 21/14 A3017 RMK AO1 SLP214 T02060139





000
SAUS41 KPHI 282255
MTRACY
METAR KACY 282254Z 16006KT 10SM CLR 24/14 A3014 RMK AO2 SLP207
T02390144





000
SAUS41 KPHI 282155
MTR12N
METAR K12N 282154Z AUTO 00000KT 24/13 A3016 RMK AO1 SLP210 T02440128





000
SAUS41 KPHI 282155
MTRACY
METAR KACY 282154Z 17009KT 10SM CLR 25/14 A3014 RMK AO2 SLP206
T02500139





000
SAUS41 KPHI 282155
MTR12N
METAR K12N 282154Z AUTO 00000KT 24/13 A3016 RMK AO1 SLP210 T02440128





000
SAUS41 KPHI 282155
MTRACY
METAR KACY 282154Z 17009KT 10SM CLR 25/14 A3014 RMK AO2 SLP206
T02500139





000
SAUS41 KPHI 281955
MTRACY
METAR KACY 281954Z 17010KT 10SM BKN065 25/12 A3015 RMK AO2 SLP208
T02500122





000
SAUS41 KPHI 281955
MTR12N
METAR K12N 281954Z AUTO VRB03KT 24/12 A3017 RMK AO1 SLP212 T02390117





000
SAUS41 KPHI 281955
MTRACY
METAR KACY 281954Z 17010KT 10SM BKN065 25/12 A3015 RMK AO2 SLP208
T02500122





000
SAUS41 KPHI 281955
MTR12N
METAR K12N 281954Z AUTO VRB03KT 24/12 A3017 RMK AO1 SLP212 T02390117





000
SAUS41 KPHI 281855
MTRACY
METAR KACY 281854Z 26007KT 230V310 10SM BKN065 29/11 A3016 RMK AO2
SLP211 T02890111





000
SAUS41 KPHI 281855
MTR12N
METAR K12N 281854Z AUTO VRB06KT 23/12 A3017 RMK AO1 SLP214 T02330122





000
SAUS41 KPHI 281855
MTRACY
METAR KACY 281854Z 26007KT 230V310 10SM BKN065 29/11 A3016 RMK AO2
SLP211 T02890111





000
SAUS41 KPHI 281855
MTR12N
METAR K12N 281854Z AUTO VRB06KT 23/12 A3017 RMK AO1 SLP214 T02330122





000
SAUS41 KPHI 281755
MTRACY
METAR KACY 281754Z VRB05KT 10SM SCT060 27/11 A3017 RMK AO2 SLP215
T02720106 10289 20172 58013





000
SAUS41 KPHI 281755
MTR12N
METAR K12N 281754Z AUTO 26006KT 23/12 A3019 RMK AO1 SLP221 T02330122
10239 20133 58011





000
SAUS41 KPHI 281755
MTR12N
METAR K12N 281754Z AUTO 26006KT 23/12 A3019 RMK AO1 SLP221 T02330122
10239 20133 58011





000
SAUS41 KPHI 281755
MTRACY
METAR KACY 281754Z VRB05KT 10SM SCT060 27/11 A3017 RMK AO2 SLP215
T02720106 10289 20172 58013





000
SAUS41 KPHI 281656
MTRACY
METAR KACY 281654Z AUTO 31010KT 10SM SCT060 28/11 A3018 RMK AO2
SLP219 T02830106 TSNO $





000
SAUS41 KPHI 281655
MTR12N
METAR K12N 281654Z AUTO 32006KT 23/13 A3021 RMK AO1 SLP225 T02280128





000
SAUS41 KPHI 281555
MTRACY
METAR KACY 281554Z VRB04KT 10SM CLR 27/11 A3020 RMK AO2 SLP226
T02670106 $





000
SAUS41 KPHI 281555
MTR12N
METAR K12N 281554Z AUTO VRB04KT 21/13 A3022 RMK AO1 SLP231 T02110128





000
SAUS41 KPHI 281455
MTR12N
METAR K12N 281454Z AUTO VRB03KT 21/12 A3023 RMK AO1 SLP232 T02110122
52007





000
SAUS41 KPHI 281455
MTRACY
METAR KACY 281454Z 04004KT 10SM CLR 26/10 A3021 RMK AO2 SLP227
T02610100 53011 $





000
SAUS41 KPHI 281455
MTR12N
METAR K12N 281454Z AUTO VRB03KT 21/12 A3023 RMK AO1 SLP232 T02110122
52007





000
SAUS41 KPHI 281455
MTRACY
METAR KACY 281454Z 04004KT 10SM CLR 26/10 A3021 RMK AO2 SLP227
T02610100 53011 $





000
SAUS41 KPHI 281355
MTRACY
METAR KACY 281354Z 01005KT 10SM CLR 24/12 A3019 RMK AO2 SLP222
T02440117 $





000
SAUS41 KPHI 281355
MTR12N
METAR K12N 281354Z AUTO VRB05KT 19/13 A3022 RMK AO1 SLP230 T01940128





000
SAUS41 KPHI 281255
MTRACY
METAR KACY 281254Z 36004KT 10SM CLR 21/13 A3018 RMK AO2 SLP219
T02110133 $





000
SAUS41 KPHI 281255
MTR12N
METAR K12N 281254Z AUTO 08003KT 17/13 A3021 RMK AO1 SLP229 T01670133





000
SAUS41 KPHI 281155
MTR12N
METAR K12N 281154Z AUTO 00000KT 13/13 A3020 RMK AO1 SLP226 T01330128
10133 20100 53011





000
SAUS41 KPHI 281155
MTRACY
METAR KACY 281154Z 35003KT 10SM CLR 17/13 A3017 RMK AO2 SLP217
T01720133 10172 20128 53011 $





000
SAUS41 KPHI 281155
MTRACY
METAR KACY 281154Z 35003KT 10SM CLR 17/13 A3017 RMK AO2 SLP217
T01720133 10172 20128 53011 $





000
SAUS41 KPHI 281155
MTR12N
METAR K12N 281154Z AUTO 00000KT 13/13 A3020 RMK AO1 SLP226 T01330128
10133 20100 53011





000
SAUS41 KPHI 281055
MTRACY
METAR KACY 281054Z 34003KT 10SM CLR 14/12 A3016 RMK AO2 SLP214
T01440122 $





000
SAUS41 KPHI 281055
MTR12N
METAR K12N 281054Z AUTO 00000KT 11/10 A3019 RMK AO1 SLP222 T01060100





000
SAUS41 KPHI 281055
MTRACY
METAR KACY 281054Z 34003KT 10SM CLR 14/12 A3016 RMK AO2 SLP214
T01440122 $





000
SAUS41 KPHI 281055
MTR12N
METAR K12N 281054Z AUTO 00000KT 11/10 A3019 RMK AO1 SLP222 T01060100





000
SAUS41 KPHI 280955
MTR12N
METAR K12N 280954Z AUTO 00000KT 11/10 A3018 RMK AO1 SLP217 T01060100





000
SAUS41 KPHI 280955
MTRACY
METAR KACY 280954Z 33003KT 10SM CLR 14/12 A3015 RMK AO2 SLP207
T01390117 $





000
SAUS41 KPHI 280755
MTR12N
METAR K12N 280754Z AUTO 00000KT 11/11 A3016 RMK AO1 SLP211 T01110106





000
SAUS41 KPHI 280755
MTRACY
METAR KACY 280754Z 00000KT 10SM CLR 14/12 A3014 RMK AO2 SLP204
T01440122 $





000
SAUS41 KPHI 280655
MTR12N
METAR K12N 280654Z AUTO 00000KT 11/11 A3017 RMK AO1 SLP214 T01110106





000
SAUS41 KPHI 280655
MTRACY
METAR KACY 280654Z AUTO 31003KT 10SM CLR 16/12 A3014 RMK AO2 SLP204
T01560122 TSNO $





000
SAUS41 KPHI 280655
MTRACY
METAR KACY 280654Z AUTO 31003KT 10SM CLR 16/12 A3014 RMK AO2 SLP204
T01560122 TSNO $





000
SAUS41 KPHI 280655
MTR12N
METAR K12N 280654Z AUTO 00000KT 11/11 A3017 RMK AO1 SLP214 T01110106





000
SAUS41 KPHI 280557
MTR12N
METAR K12N 280554Z AUTO 00000KT 12/11 A3017 RMK AO1 SLP212 T01170111
10167 20117 51006





000
SAUS41 KPHI 280557
MTR12N
METAR K12N 280554Z AUTO 00000KT 12/11 A3017 RMK AO1 SLP212 T01170111
10167 20117 51006





000
SAUS41 KPHI 280555
MTRACY
METAR KACY 280554Z AUTO 32003KT 10SM CLR 16/13 A3014 RMK AO2 SLP204
T01610133 10228 20156 50002 TSNO $





000
SAUS41 KPHI 280555
MTRACY
METAR KACY 280554Z AUTO 32003KT 10SM CLR 16/13 A3014 RMK AO2 SLP204
T01610133 10228 20156 50002 TSNO $





000
SAUS41 KPHI 280456
MTR12N
METAR K12N 280454Z AUTO 00000KT 12/12 A3017 RMK AO1 SLP212 T01220117
402330122





000
SAUS41 KPHI 280455
MTRACY
METAR KACY 280454Z AUTO 00000KT 10SM BKN065 17/13 A3014 RMK AO2
SLP207 T01670133 402830139 TSNO $





000
SAUS41 KPHI 280355
MTR12N
METAR K12N 280354Z AUTO 00000KT 13/12 A3016 RMK AO1 SLP208 T01280122





000
SAUS41 KPHI 280355
MTRACY
METAR KACY 280354Z AUTO 00000KT 10SM OVC065 18/14 A3014 RMK AO2
SLP204 T01830139 TSNO $





000
SAUS41 KPHI 280355
MTRACY
METAR KACY 280354Z AUTO 00000KT 10SM OVC065 18/14 A3014 RMK AO2
SLP204 T01830139 TSNO $





000
SAUS41 KPHI 280355
MTR12N
METAR K12N 280354Z AUTO 00000KT 13/12 A3016 RMK AO1 SLP208 T01280122





000
SAUS41 KPHI 280255
MTRACY
METAR KACY 280254Z AUTO 31003KT 10SM BKN065 18/14 A3013 RMK AO2
SLP202 T01830139 51020 TSNO $





000
SAUS41 KPHI 280255
MTR12N
METAR K12N 280254Z AUTO 00000KT 13/12 A3015 RMK AO1 SLP206 T01280122
51015





000
SAUS41 KPHI 280155
MTR12N
METAR K12N 280154Z AUTO 00000KT 14/13 A3014 RMK AO1 SLP203 T01390133





000
SAUS41 KPHI 280155
MTRACY
METAR KACY 280154Z 00000KT 10SM CLR 18/14 A3012 RMK AO2 SLP198
T01830139 $





000
SAUS41 KPHI 280155
MTR12N
METAR K12N 280154Z AUTO 00000KT 14/13 A3014 RMK AO1 SLP203 T01390133





000
SAUS41 KPHI 280155
MTRACY
METAR KACY 280154Z 00000KT 10SM CLR 18/14 A3012 RMK AO2 SLP198
T01830139 $





000
SAUS41 KPHI 280055
MTR12N
METAR K12N 280054Z AUTO 00000KT 15/14 A3013 RMK AO1 SLP199 T01500139





000
SAUS41 KPHI 280055
MTRACY
METAR KACY 280054Z 00000KT 10SM CLR 22/13 A3010 RMK AO2 SLP191
T02220133 $





000
SAUS41 KPHI 280055
MTR12N
METAR K12N 280054Z AUTO 00000KT 15/14 A3013 RMK AO1 SLP199 T01500139





000
SAUS41 KPHI 280055
MTRACY
METAR KACY 280054Z 00000KT 10SM CLR 22/13 A3010 RMK AO2 SLP191
T02220133 $





000
SAUS41 KPHI 272355
MTRACY
METAR KACY 272354Z 00000KT 10SM CLR 23/13 A3007 RMK AO2 SLP182
T02280133 10283 20228 53006 $





000
SAUS41 KPHI 272355
MTR12N
METAR K12N 272354Z AUTO 00000KT 17/14 A3010 RMK AO1 SLP191 T01670139
10233 20167 51006





000
SAUS41 KPHI 272355
MTRACY
METAR KACY 272354Z 00000KT 10SM CLR 23/13 A3007 RMK AO2 SLP182
T02280133 10283 20228 53006 $





000
SAUS41 KPHI 272355
MTR12N
METAR K12N 272354Z AUTO 00000KT 17/14 A3010 RMK AO1 SLP191 T01670139
10233 20167 51006





000
SAUS41 KPHI 272255
MTR12N
METAR K12N 272254Z AUTO 00000KT 20/13 A3010 RMK AO1 SLP190 T02000128





000
SAUS41 KPHI 272255
MTRACY
METAR KACY 272254Z 35006KT 10SM BKN070 25/13 A3006 RMK AO2 SLP178
T02500128 $





000
SAUS41 KPHI 272055
MTRACY
METAR KACY 272054Z 28005KT 10SM OVC070 26/11 A3005 RMK AO2 SLP176
T02610111 55005 $





000
SAUS41 KPHI 272055
MTR12N
METAR K12N 272054Z AUTO 34005KT 22/13 A3008 RMK AO1 SLP184 T02170133
55003





000
SAUS41 KPHI 272055
MTR12N
METAR K12N 272054Z AUTO 34005KT 22/13 A3008 RMK AO1 SLP184 T02170133
55003





000
SAUS41 KPHI 272055
MTRACY
METAR KACY 272054Z 28005KT 10SM OVC070 26/11 A3005 RMK AO2 SLP176
T02610111 55005 $





000
SAUS41 KPHI 271955
MTR12N
METAR K12N 271954Z AUTO 00000KT 22/13 A3008 RMK AO1 SLP183 T02220128





000
SAUS41 KPHI 271955
MTRACY
METAR KACY 271954Z 30007KT 10SM SCT060 27/12 A3005 RMK AO2 SLP174
T02720122 $





000
SAUS41 KPHI 271855
MTR12N
METAR K12N 271854Z AUTO 31003KT 22/13 A3009 RMK AO1 SLP186 T02220128





000
SAUS41 KPHI 271855
MTRACY
METAR KACY 271854Z 29008KT 10SM FEW065 27/13 A3006 RMK AO2 SLP179
T02720128





000
SAUS41 KPHI 271855
MTR12N
METAR K12N 271854Z AUTO 31003KT 22/13 A3009 RMK AO1 SLP186 T02220128





000
SAUS41 KPHI 271855
MTRACY
METAR KACY 271854Z 29008KT 10SM FEW065 27/13 A3006 RMK AO2 SLP179
T02720128





000
SAUS41 KPHI 271755
MTR12N
METAR K12N 271754Z AUTO 31004KT 23/13 A3009 RMK AO1 SLP186 T02280128
10233 20150 56009





000
SAUS41 KPHI 271755
MTRACY
METAR KACY 271754Z 29009KT 10SM CLR 27/13 A3007 RMK AO2 SLP181
T02720128 10272 20178 58011





000
SAUS41 KPHI 271755
MTRACY
METAR KACY 271754Z 29009KT 10SM CLR 27/13 A3007 RMK AO2 SLP181
T02720128 10272 20178 58011





000
SAUS41 KPHI 271755
MTR12N
METAR K12N 271754Z AUTO 31004KT 23/13 A3009 RMK AO1 SLP186 T02280128
10233 20150 56009





000
SAUS41 KPHI 271655
MTRACY
METAR KACY 271654Z AUTO VRB06KT 10SM FEW041 25/13 A3008 RMK AO2
SLP186 T02500133 TSNO





000
SAUS41 KPHI 271655
MTRACY
METAR KACY 271654Z AUTO VRB06KT 10SM FEW041 25/13 A3008 RMK AO2
SLP186 T02500133 TSNO





000
SAUS41 KPHI 271655
MTR12N
METAR K12N 271654Z AUTO 33006KT 22/12 A3009 RMK AO1 SLP187 T02170122





000
SAUS41 KPHI 271655
MTR12N
METAR K12N 271654Z AUTO 33006KT 22/12 A3009 RMK AO1 SLP187 T02170122





000
SAUS41 KPHI 271555
MTR12N
METAR K12N 271554Z AUTO 31005KT 21/13 A3011 RMK AO1 SLP192 T02110128





000
SAUS41 KPHI 271555
MTRACY
METAR KACY 271554Z AUTO 32007KT 10SM CLR 24/13 A3010 RMK AO2 SLP191
T02440133 TSNO





000
SAUS41 KPHI 271455
MTR12N
METAR K12N 271454Z AUTO VRB06KT 22/14 A3012 RMK AO1 SLP195 T02170139
53008





000
SAUS41 KPHI 271455
MTRACY
METAR KACY 271454Z AUTO 10SM CLR 24/13 A3010 RMK AO2 SLP192
T02440133 53008 TSNO





000
SAUS41 KPHI 271355
MTRACY
METAR KACY 271354Z AUTO 33007KT 10SM CLR 23/14 A3009 RMK AO2 SLP189
T02330139 TSNO





000
SAUS41 KPHI 271355
MTR12N
METAR K12N 271354Z AUTO VRB05KT 21/14 A3010 RMK AO1 SLP189 T02060139





000
SAUS41 KPHI 271255
MTRACY
METAR KACY 271254Z AUTO 36008KT 10SM CLR 21/13 A3008 RMK AO2 SLP186
T02110133 TSNO





000
SAUS41 KPHI 271255
MTR12N
METAR K12N 271254Z AUTO 35005KT 19/14 A3010 RMK AO1 SLP187 T01890139





000
SAUS41 KPHI 271255
MTRACY
METAR KACY 271254Z AUTO 36008KT 10SM CLR 21/13 A3008 RMK AO2 SLP186
T02110133 TSNO





000
SAUS41 KPHI 271255
MTR12N
METAR K12N 271254Z AUTO 35005KT 19/14 A3010 RMK AO1 SLP187 T01890139





000
SAUS41 KPHI 271155
MTR12N
METAR K12N 271154Z AUTO 00000KT 15/14 A3010 RMK AO1 SLP188 T01500144
10150 20128 53017





000
SAUS41 KPHI 271155
MTRACY
METAR KACY 271154Z AUTO 32005KT 10SM CLR 18/13 A3008 RMK AO2 SLP184
T01780133 10178 20139 53014 TSNO





000
SAUS41 KPHI 271155
MTRACY
METAR KACY 271154Z AUTO 32005KT 10SM CLR 18/13 A3008 RMK AO2 SLP184
T01780133 10178 20139 53014 TSNO





000
SAUS41 KPHI 271155
MTR12N
METAR K12N 271154Z AUTO 00000KT 15/14 A3010 RMK AO1 SLP188 T01500144
10150 20128 53017





000
SAUS41 KPHI 271055
MTR12N
METAR K12N 271054Z AUTO 00000KT 13/13 A3008 RMK AO1 SLP181 T01330133





000
SAUS41 KPHI 271055
MTRACY
METAR KACY 271054Z AUTO 29004KT 10SM CLR 15/12 A3006 RMK AO2 SLP179
T01500122 TSNO





000
SAUS41 KPHI 271055
MTRACY
METAR KACY 271054Z AUTO 29004KT 10SM CLR 15/12 A3006 RMK AO2 SLP179
T01500122 TSNO





000
SAUS41 KPHI 271055
MTR12N
METAR K12N 271054Z AUTO 00000KT 13/13 A3008 RMK AO1 SLP181 T01330133





000
SAUS41 KPHI 270955
MTRACY
METAR KACY 270954Z AUTO 30004KT 10SM CLR 14/12 A3004 RMK AO2 SLP172
T01390117 TSNO





000
SAUS41 KPHI 270955
MTR12N
METAR K12N 270954Z AUTO 00000KT 14/14 A3006 RMK AO1 SLP174 T01390139





000
SAUS41 KPHI 270855
MTR12N
METAR K12N 270854Z AUTO 21003KT 14/13 A3005 RMK AO1 SLP170 T01390133
55003





000
SAUS41 KPHI 270855
MTR12N
METAR K12N 270854Z AUTO 21003KT 14/13 A3005 RMK AO1 SLP170 T01390133
55003





000
SAUS41 KPHI 270855
MTRACY
METAR KACY 270854Z AUTO 31004KT 10SM CLR 14/12 A3003 RMK AO2 SLP169
T01440117 56003 TSNO





000
SAUS41 KPHI 270855
MTRACY
METAR KACY 270854Z AUTO 31004KT 10SM CLR 14/12 A3003 RMK AO2 SLP169
T01440117 56003 TSNO





000
SAUS41 KPHI 270755
MTR12N
METAR K12N 270754Z AUTO 00000KT 13/13 A3004 RMK AO1 SLP168 T01330133





000
SAUS41 KPHI 270755
MTRACY
METAR KACY 270754Z AUTO 26004KT 10SM CLR 17/12 A3004 RMK AO2 SLP171
T01670122 TSNO





000
SAUS41 KPHI 270755
MTRACY
METAR KACY 270754Z AUTO 26004KT 10SM CLR 17/12 A3004 RMK AO2 SLP171
T01670122 TSNO





000
SAUS41 KPHI 270755
MTR12N
METAR K12N 270754Z AUTO 00000KT 13/13 A3004 RMK AO1 SLP168 T01330133





000
SAUS41 KPHI 270655
MTRACY
METAR KACY 270654Z 30007KT 10SM CLR 16/13 A3003 RMK AO2 SLP169
T01610128





000
SAUS41 KPHI 270655
MTR12N
METAR K12N 270654Z AUTO 00000KT 13/12 A3004 RMK AO1 SLP168 T01280122





000
SAUS41 KPHI 270555
MTR12N
METAR K12N 270554Z AUTO 00000KT 13/13 A3005 RMK AO1 SLP173 T01330128
10189 20133 50001





000
SAUS41 KPHI 270555
MTRACY
METAR KACY 270554Z 31004KT 10SM CLR 16/12 A3004 RMK AO2 SLP172
T01610122 10239 20161 50001





000
SAUS41 KPHI 270555
MTR12N
METAR K12N 270554Z AUTO 00000KT 13/13 A3005 RMK AO1 SLP173 T01330128
10189 20133 50001





000
SAUS41 KPHI 270555
MTRACY
METAR KACY 270554Z 31004KT 10SM CLR 16/12 A3004 RMK AO2 SLP172
T01610122 10239 20161 50001





000
SAUS41 KPHI 270456
MTR12N
METAR K12N 270454Z AUTO 00000KT 14/13 A3006 RMK AO1 SLP175 T01390133
402560117





000
SAUS41 KPHI 270456
MTRACY
METAR KACY 270454Z 31006KT 10SM CLR 17/13 A3005 RMK AO2 SLP175
T01720128 403000144





000
SAUS41 KPHI 270355
MTRACY
METAR KACY 270354Z 28007KT 10SM CLR 19/13 A3005 RMK AO2 SLP174
T01940128





000
SAUS41 KPHI 270355
MTR12N
METAR K12N 270354Z AUTO 00000KT 14/14 A3006 RMK AO1 SLP174 T01440139





000
SAUS41 KPHI 270355
MTRACY
METAR KACY 270354Z 28007KT 10SM CLR 19/13 A3005 RMK AO2 SLP174
T01940128





000
SAUS41 KPHI 270355
MTR12N
METAR K12N 270354Z AUTO 00000KT 14/14 A3006 RMK AO1 SLP174 T01440139





000
SAUS41 KPHI 270255
MTR12N
METAR K12N 270254Z AUTO 00000KT 15/14 A3005 RMK AO1 SLP171 T01500144
51020





000
SAUS41 KPHI 270255
MTRACY
METAR KACY 270254Z 27005KT 10SM CLR 21/13 A3004 RMK AO2 SLP171
T02060128 51015





000
SAUS41 KPHI 270155
MTRACY
METAR KACY 270154Z 27006KT 10SM CLR 21/13 A3003 RMK AO2 SLP167
T02110128





000
SAUS41 KPHI 270155
MTR12N
METAR K12N 270154Z AUTO 00000KT 16/14 A3004 RMK AO1 SLP168 T01610139





000
SAUS41 KPHI 270055
MTR12N
METAR K12N 270054Z AUTO 00000KT 17/15 A3002 RMK AO1 SLP161 T01720150





000
SAUS41 KPHI 270055
MTRACY
METAR KACY 270054Z 27006KT 10SM CLR 23/13 A3002 RMK AO2 SLP164
T02280128





000
SAUS41 KPHI 270055
MTR12N
METAR K12N 270054Z AUTO 00000KT 17/15 A3002 RMK AO1 SLP161 T01720150





000
SAUS41 KPHI 270055
MTRACY
METAR KACY 270054Z 27006KT 10SM CLR 23/13 A3002 RMK AO2 SLP164
T02280128





000
SAUS41 KPHI 262355
MTRACY
METAR KACY 262354Z 28006KT 10SM BKN065 24/13 A2999 RMK AO2 SLP156
T02390128 10300 20239 53012





000
SAUS41 KPHI 262355
MTR12N
METAR K12N 262354Z AUTO 00000KT 19/14 A2999 RMK AO1 SLP152 T01890139
10256 20189 53004





000
SAUS41 KPHI 262355
MTR12N
METAR K12N 262354Z AUTO 00000KT 19/14 A2999 RMK AO1 SLP152 T01890139
10256 20189 53004





000
SAUS41 KPHI 262355
MTRACY
METAR KACY 262354Z 28006KT 10SM BKN065 24/13 A2999 RMK AO2 SLP156
T02390128 10300 20239 53012





000
SAUS41 KPHI 262255
MTRACY
METAR KACY 262254Z 28008KT 10SM SCT065 26/13 A2997 RMK AO2 SLP148
T02560128





000
SAUS41 KPHI 262255
MTR12N
METAR K12N 262254Z AUTO 00000KT 21/14 A2998 RMK AO1 SLP149 T02110139





000
SAUS41 KPHI 262155
MTRACY
METAR KACY 262154Z AUTO 28011KT 10SM CLR 27/12 A2996 RMK AO2 SLP144
T02720117 TSNO





000
SAUS41 KPHI 262155
MTR12N
METAR K12N 262154Z AUTO VRB04KT 24/12 A2997 RMK AO1 SLP145 T02440122





000
SAUS41 KPHI 262055
MTRACY
METAR KACY 262054Z AUTO 28009KT 10SM FEW065 28/12 A2996 RMK AO2
SLP144 T02780122 56012 TSNO





000
SAUS41 KPHI 262055
MTR12N
METAR K12N 262054Z AUTO 29004KT 25/13 A2997 RMK AO1 SLP146 T02500128
58007





000
SAUS41 KPHI 261955
MTRACY
METAR KACY 261954Z 30005KT 10SM BKN060 28/12 A2997 RMK AO2 SLP147
T02780122





000
SAUS41 KPHI 261955
MTR12N
METAR K12N 261954Z AUTO VRB06KT 24/12 A2998 RMK AO1 SLP148 T02390122





000
SAUS41 KPHI 261955
MTRACY
METAR KACY 261954Z 30005KT 10SM BKN060 28/12 A2997 RMK AO2 SLP147
T02780122





000
SAUS41 KPHI 261955
MTR12N
METAR K12N 261954Z AUTO VRB06KT 24/12 A2998 RMK AO1 SLP148 T02390122





    US Dept of Commerce
    National Oceanic and Atmospheric Administration
    National Weather Service
    1325 East West Highway
    Silver Spring, MD 20910
    Page Author: NWS Internet Services Team
Disclaimer
Information Quality
Credits
Glossary
Privacy Policy
Freedom of Information Act (FOIA)
About Us
Career Opportunities